Terminal Aerodrome Forecast
Issued by NWS Twin Cities, MN

Home | Current Version | Previous Version | Text Only | Print | Product List | Glossary On
Versions: 1 2 3 4 5 6 7 8 9 10 11 12 13 14 15 16 17
688
FTUS43 KMPX 051742
TAFEAU
TAF
KEAU 051742Z 0518/0618 14009KT P6SM OVC007
      TEMPO 0518/0519 4SM BR OVC003
     FM052000 14010KT P6SM OVC015
     FM060000 14012KT P6SM SCT030 OVC080
     FM060800 18008KT 1SM -SN BR OVC008
     FM061300 24010G18KT P6SM OVC015=

USA.gov is the U.S. government's official web portal to all federal, state and local government web resources and services.